Time;durP1;ratioP1;P1;durP2;ratioP2;P2;SDS_P1;SDS_P2;PMS_P1;PMS_P2;Temp;Humidity;BMP_temperature;BMP_pressure;BME280_temperature;BME280_humidity;BME280_pressure;Samples;Min_cycle;Max_cycle;Signal;HPM_P1;HPM_P2
2022/11/27 00:01:47;;;;;;;1.92;1.70;;;;;;;5.80;100.00;102522.38;5058914;28;20036;-79
2022/11/27 00:04:12;;;;;;;3.38;2.85;;;;;;;5.75;100.00;102505.13;5057266;28;20036;-78
2022/11/27 00:06:39;;;;;;;9.60;1.90;;;;;;;5.78;100.00;102507.56;5045855;28;20032;-79
2022/11/27 00:09:07;;;;;;;8.30;3.30;;;;;;;5.78;100.00;102512.81;5081413;28;20372;-79
2022/11/27 00:11:33;;;;;;;7.63;3.92;;;;;;;5.76;100.00;102501.56;5075640;28;20497;-79
2022/11/27 00:13:59;;;;;;;4.47;2.58;;;;;;;5.83;100.00;102502.09;5042722;28;20029;-79
2022/11/27 00:16:25;;;;;;;2.90;2.20;;;;;;;5.82;100.00;102494.34;5075606;28;20039;-79
2022/11/27 00:18:51;;;;;;;8.60;3.10;;;;;;;5.64;100.00;102455.06;5059484;28;20660;-79
2022/11/27 00:21:23;;;;;;;10.43;2.35;;;;;;;5.62;100.00;102456.03;5072299;28;20067;-79
2022/11/27 00:23:49;;;;;;;6.97;2.65;;;;;;;5.71;100.00;102476.53;5073314;28;20031;-78
2022/11/27 00:26:15;;;;;;;4.80;2.72;;;;;;;5.82;100.00;102486.47;5056976;28;20046;-78
2022/11/27 00:28:41;;;;;;;2.78;1.48;;;;;;;5.84;100.00;102476.75;5055930;28;20543;-78
2022/11/27 00:31:18;;;;;;;3.17;2.53;;;;;;;5.72;100.00;102468.59;5075657;28;20035;-78
2022/11/27 00:33:44;;;;;;;5.22;2.33;;;;;;;5.80;100.00;102477.84;5074928;28;20020;-78
2022/11/27 00:36:10;;;;;;;8.88;3.20;;;;;;;5.78;100.00;102484.00;5055359;28;20065;-78
2022/11/27 00:38:37;;;;;;;7.95;3.42;;;;;;;5.76;100.00;102480.59;5074119;28;20030;-78
2022/11/27 00:41:15;;;;;;;3.92;2.47;;;;;;;5.77;100.00;102477.06;5055575;28;20045;-78
2022/11/27 00:43:41;;;;;;;10.48;1.50;;;;;;;5.65;100.00;102472.44;5055295;28;20038;-78
2022/11/27 00:46:06;;;;;;;9.55;2.25;;;;;;;5.62;100.00;102440.31;5055589;28;20028;-78
2022/11/27 00:48:32;;;;;;;8.63;2.60;;;;;;;5.71;100.00;102472.16;5056029;28;20043;-78
2022/11/27 00:51:03;;;;;;;8.45;2.47;;;;;;;5.70;100.00;102456.50;5037755;28;20028;-78
2022/11/27 00:53:29;;;;;;;;;;;;;;;5.66;100.00;102455.81;5054591;28;20020;-78
2022/11/27 00:55:55;;;;;;;6.63;2.30;;;;;;;5.62;100.00;102456.03;5057715;28;20368;-78
2022/11/27 00:58:22;;;;;;;5.40;2.47;;;;;;;5.57;100.00;102451.03;5059225;28;20032;-78
2022/11/27 01:00:57;;;;;;;1.48;1.00;;;;;;;5.50;100.00;102463.59;5052427;28;20498;-78
2022/11/27 01:03:23;;;;;;;1.65;1.35;;;;;;;5.49;100.00;102458.47;5072056;28;20059;-78
2022/11/27 01:05:49;;;;;;;1.73;1.35;;;;;;;5.20;100.00;102421.47;5074169;28;20036;-78
2022/11/27 01:08:14;;;;;;;2.83;2.00;;;;;;;5.35;100.00;102462.59;5075251;28;20029;-78
2022/11/27 01:10:47;;;;;;;3.42;2.30;;;;;;;5.30;100.00;102440.19;5042515;28;20061;-78
2022/11/27 01:13:12;;;;;;;5.90;1.65;;;;;;;5.30;100.00;102455.91;5076893;28;20138;-78
2022/11/27 01:15:38;;;;;;;3.75;2.60;;;;;;;5.30;100.00;102456.75;5043696;28;20486;-78
2022/11/27 01:18:03;;;;;;;3.17;2.70;;;;;;;5.10;100.00;102433.34;5078870;28;20028;-78
2022/11/27 01:20:28;;;;;;;6.05;2.17;;;;;;;5.24;100.00;102457.03;5043381;28;20035;-78
2022/11/27 01:22:54;;;;;;;8.30;3.03;;;;;;;5.11;100.00;102435.00;5074937;28;20055;-78
2022/11/27 01:25:19;;;;;;;2.50;2.30;;;;;;;5.22;100.00;102453.66;5028297;28;20074;-78
2022/11/27 01:27:44;;;;;;;3.28;1.65;;;;;;;5.15;100.00;102436.56;5042979;28;20073;-78
2022/11/27 01:30:10;;;;;;;8.25;2.63;;;;;;;5.02;100.00;102407.53;5040643;28;20049;-78
2022/11/27 01:32:36;;;;;;;5.70;2.30;;;;;;;5.08;100.00;102414.25;5024791;28;20031;-78
2022/11/27 01:35:01;;;;;;;2.25;2.05;;;;;;;5.10;100.00;102415.00;5055477;28;20039;-78
2022/11/27 01:37:26;;;;;;;3.33;1.60;;;;;;;5.10;100.00;102412.41;5058475;28;20442;-78
2022/11/27 01:39:52;;;;;;;3.30;2.40;;;;;;;5.12;100.00;102410.56;5052826;28;20071;-78
2022/11/27 01:42:17;;;;;;;10.32;4.07;;;;;;;5.24;100.00;102430.88;5023625;28;20592;-78
2022/11/27 01:44:49;;;;;;;3.00;2.33;;;;;;;5.13;100.00;102404.38;5038656;28;20467;-78
2022/11/27 01:47:28;;;;;;;5.32;1.55;;;;;;;5.15;100.00;102413.84;5055696;28;20504;-78
2022/11/27 01:50:04;;;;;;;4.38;2.67;;;;;;;5.09;100.00;102410.69;5055255;28;20611;-78
2022/11/27 01:52:35;;;;;;;4.45;2.55;;;;;;;5.02;100.00;102390.97;5055221;28;20430;-78
2022/11/27 01:55:17;;;;;;;2.42;1.48;;;;;;;4.98;100.00;102381.59;5055107;28;20032;-78
2022/11/27 01:57:47;;;;;;;1.88;1.65;;;;;;;4.97;100.00;102387.75;5057110;28;20132;-78
2022/11/27 02:00:14;;;;;;;7.57;1.60;;;;;;;5.01;100.00;102394.50;5051453;28;20377;-78
2022/11/27 02:02:41;;;;;;;2.65;1.63;;;;;;;5.01;100.00;102398.00;5055356;28;20411;-78
2022/11/27 02:05:08;;;;;;;1.80;1.65;;;;;;;4.95;100.00;102404.38;5054546;28;20029;-78
2022/11/27 02:07:33;;;;;;;3.90;2.08;;;;;;;4.70;100.00;102367.25;5057040;28;20408;-78
2022/11/27 02:09:59;;;;;;;6.35;2.08;;;;;;;4.68;100.00;102369.94;5039138;28;20032;-78
2022/11/27 02:12:39;;;;;;;7.80;2.95;;;;;;;4.72;100.00;102381.94;5053854;28;20048;-78
2022/11/27 02:15:20;;;;;;;5.22;2.70;;;;;;;4.78;100.00;102382.56;5053945;28;20408;-78
2022/11/27 02:18:03;;;;;;;7.70;2.85;;;;;;;4.77;100.00;102386.97;5054030;28;20039;-78
2022/11/27 02:20:52;;;;;;;3.35;1.40;;;;;;;4.76;100.00;102387.03;5055184;28;20115;-78
2022/11/27 02:23:39;;;;;;;2.20;1.45;;;;;;;4.73;100.00;102382.81;5054323;28;20052;-78
2022/11/27 02:26:07;;;;;;;2.38;2.05;;;;;;;4.75;100.00;102380.97;5054111;28;20335;-78
2022/11/27 02:28:43;;;;;;;7.07;4.35;;;;;;;4.44;100.00;102330.16;5061014;28;20479;-78
2022/11/27 02:31:17;;;;;;;4.60;2.22;;;;;;;4.69;100.00;102358.56;5027866;28;20063;-78
2022/11/27 02:33:48;;;;;;;2.15;1.45;;;;;;;4.31;100.00;102305.50;5058634;28;20440;-78
2022/11/27 02:36:21;;;;;;;5.30;2.17;;;;;;;4.75;100.00;102362.66;5074754;28;20031;-78
2022/11/27 02:38:55;;;;;;;3.72;2.63;;;;;;;4.72;100.00;102362.78;5075731;28;20125;-78
2022/11/27 02:41:29;;;;;;;5.30;3.05;;;;;;;4.66;100.00;102360.47;5075940;28;20089;-78
2022/11/27 02:43:56;;;;;;;2.42;1.30;;;;;;;4.66;100.00;102350.00;5057143;28;20028;-78
2022/11/27 02:46:22;;;;;;;2.33;2.13;;;;;;;4.72;100.00;102350.53;5058485;28;20039;-78
2022/11/27 02:49:04;;;;;;;4.03;2.22;;;;;;;4.79;100.00;102351.13;5058588;28;20439;-77
2022/11/27 02:51:37;;;;;;;4.43;2.50;;;;;;;4.64;100.00;102320.47;5057801;28;20492;-77
2022/11/27 02:54:06;;;;;;;2.88;1.85;;;;;;;4.76;100.00;102335.56;5056502;28;20519;-78
2022/11/27 02:56:33;;;;;;;8.48;2.72;;;;;;;4.70;100.00;102323.66;5075494;28;20462;-78
2022/11/27 02:59:02;;;;;;;7.93;2.15;;;;;;;4.63;100.00;102322.22;5075955;28;20028;-78
2022/11/27 03:01:33;;;;;;;1.65;1.55;;;;;;;4.84;100.00;102338.66;5074016;28;20064;-78
2022/11/27 03:04:06;;;;;;;5.53;2.58;;;;;;;4.80;100.00;102313.56;5072156;28;20040;-78
2022/11/27 03:06:48;;;;;;;4.10;2.03;;;;;;;4.90;100.00;102329.63;5056644;28;20413;-78
2022/11/27 03:09:34;;;;;;;6.90;2.15;;;;;;;4.99;100.00;102326.56;5074253;28;20024;-78
2022/11/27 03:12:01;;;;;;;3.30;2.42;;;;;;;4.99;100.00;102329.19;5057286;28;20551;-78
2022/11/27 03:14:27;;;;;;;2.08;1.88;;;;;;;5.01;100.00;102326.47;5058580;28;20043;-78
2022/11/27 03:17:17;;;;;;;4.07;2.53;;;;;;;5.07;100.00;102313.09;5074270;28;20502;-78
2022/11/27 03:19:55;;;;;;;25.77;3.45;;;;;;;5.08;100.00;102310.41;5071516;28;20054;-77
2022/11/27 03:22:21;;;;;;;4.00;1.98;;;;;;;5.03;100.00;102299.34;5057320;28;20024;-78
2022/11/27 03:24:48;;;;;;;3.90;1.65;;;;;;;5.19;100.00;102302.00;5075073;28;20365;-78
2022/11/27 03:27:20;;;;;;;10.52;3.13;;;;;;;5.05;100.00;102283.53;5073560;28;20032;-78
2022/11/27 03:29:53;;;;;;;5.00;2.55;;;;;;;5.10;100.00;102286.78;5051902;28;20052;-78
2022/11/27 03:32:19;;;;;;;1.58;1.20;;;;;;;5.07;100.00;102276.44;5075739;28;20023;-78
2022/11/27 03:34:46;;;;;;;3.00;2.33;;;;;;;5.08;100.00;102283.41;5056900;28;20604;-78
2022/11/27 03:37:11;;;;;;;2.67;2.00;;;;;;;5.12;100.00;102274.47;5034113;28;20043;-78
2022/11/27 03:39:37;;;;;;;2.78;2.42;;;;;;;5.09;100.00;102274.59;5074340;28;20032;-78
2022/11/27 03:42:37;;;;;;;5.82;1.67;;;;;;;4.95;100.00;102249.16;5040472;28;20469;-78
2022/11/27 03:45:13;;;;;;;7.65;1.90;;;;;;;4.91;100.00;102245.84;5071129;28;20038;-78
2022/11/27 03:47:48;;;;;;;5.18;2.20;;;;;;;5.09;100.00;102280.69;5054798;28;20146;-78
2022/11/27 03:50:24;;;;;;;4.07;2.15;;;;;;;5.04;100.00;102276.63;5071199;28;20032;-78
2022/11/27 03:53:19;;;;;;;2.92;2.15;;;;;;;5.01;100.00;102271.53;5074047;28;20023;-78
2022/11/27 03:56:00;;;;;;;4.72;2.42;;;;;;;5.10;100.00;102260.59;5055635;28;20032;-78
2022/11/27 03:58:32;;;;;;;2.55;1.85;;;;;;;5.06;100.00;102266.94;5073103;28;20056;-78
2022/11/27 04:01:00;;;;;;;3.78;2.17;;;;;;;5.00;100.00;102257.59;5072044;28;20035;-78
2022/11/27 04:03:28;;;;;;;3.17;2.35;;;;;;;4.90;100.00;102238.94;5055646;28;20032;-78
2022/11/27 04:05:54;;;;;;;7.18;3.47;;;;;;;4.93;100.00;102254.47;5073712;28;20033;-78
2022/11/27 04:08:19;;;;;;;4.28;3.15;;;;;;;4.97;100.00;102257.78;5055958;28;20377;-78
2022/11/27 04:10:45;;;;;;;3.47;2.83;;;;;;;4.80;100.00;102227.25;5055330;28;20035;-78
2022/11/27 04:13:11;;;;;;;3.22;2.13;;;;;;;4.88;100.00;102235.56;5039709;28;20596;-78
2022/11/27 04:15:36;;;;;;;11.68;3.88;;;;;;;4.69;100.00;102217.31;5039936;28;20035;-78
2022/11/27 04:18:02;;;;;;;4.63;2.88;;;;;;;4.73;100.00;102220.66;5071538;28;20040;-78
2022/11/27 04:20:28;;;;;;;3.78;2.78;;;;;;;4.80;100.00;102235.09;5073692;28;20046;-78
2022/11/27 04:22:54;;;;;;;4.60;4.20;;;;;;;4.66;100.00;102225.34;5056904;28;20050;-78
2022/11/27 04:25:19;;;;;;;4.30;2.20;;;;;;;4.82;100.00;102240.25;5057122;28;20024;-78
2022/11/27 04:27:45;;;;;;;17.73;3.53;;;;;;;4.65;100.00;102207.09;5073797;28;20035;-78
2022/11/27 04:30:10;;;;;;;2.67;2.10;;;;;;;4.74;100.00;102228.38;5051874;28;20053;-78
2022/11/27 04:32:36;;;;;;;2.60;2.40;;;;;;;4.69;100.00;102213.88;5050159;28;20073;-78
2022/11/27 04:35:01;;;;;;;5.25;3.70;;;;;;;4.77;100.00;102232.66;5052066;28;20501;-78
2022/11/27 04:37:26;;;;;;;9.52;3.13;;;;;;;4.72;100.00;102237.25;5054727;28;20435;-78
2022/11/27 04:39:52;;;;;;;2.90;2.33;;;;;;;4.74;100.00;102238.84;5050082;28;20337;-78
2022/11/27 04:42:17;;;;;;;3.13;2.13;;;;;;;4.71;100.00;102244.25;5050162;28;20102;-77
2022/11/27 04:44:43;;;;;;;5.40;2.13;;;;;;;4.75;100.00;102239.72;5051731;28;20408;-77
2022/11/27 04:47:08;;;;;;;2.58;1.95;;;;;;;4.68;100.00;102246.16;5051601;28;20043;-78
2022/11/27 04:49:33;;;;;;;1.88;1.67;;;;;;;4.72;100.00;102252.94;5034453;28;20033;-78
2022/11/27 04:51:59;;;;;;;5.80;2.35;;;;;;;4.76;100.00;102244.00;5050996;28;20074;-78
2022/11/27 04:54:24;;;;;;;2.58;2.38;;;;;;;4.73;100.00;102252.03;5053491;28;20033;-77
2022/11/27 04:56:50;;;;;;;2.28;1.85;;;;;;;4.78;100.00;102254.41;5053630;28;20028;-77
2022/11/27 04:59:15;;;;;;;7.50;2.75;;;;;;;4.82;100.00;102251.56;5050739;28;20027;-77
2022/11/27 05:01:41;;;;;;;2.10;1.90;;;;;;;4.81;100.00;102244.63;5051243;28;20036;-77
2022/11/27 05:04:06;;;;;;;2.10;1.67;;;;;;;4.78;100.00;102255.25;5046757;28;20134;-77
2022/11/27 05:06:31;;;;;;;10.73;3.17;;;;;;;4.74;100.00;102258.94;5030378;28;20034;-77
2022/11/27 05:09:00;;;;;;;4.30;2.90;;;;;;;4.68;100.00;102239.19;5030073;28;20025;-77
2022/11/27 05:11:27;;;;;;;3.08;1.95;;;;;;;4.76;100.00;102256.25;5046543;28;20052;-77
2022/11/27 05:14:13;;;;;;;5.13;2.35;;;;;;;4.71;100.00;102243.41;5033892;28;20457;-77
2022/11/27 05:16:39;;;;;;;4.63;1.63;;;;;;;4.83;100.00;102240.16;5047290;28;20116;-77
2022/11/27 05:19:04;;;;;;;5.30;1.63;;;;;;;4.69;100.00;102217.31;5047430;28;20128;-77
2022/11/27 05:21:30;;;;;;;4.10;2.58;;;;;;;4.64;100.00;102198.41;5031732;28;20394;-77
2022/11/27 05:23:55;;;;;;;2.53;2.08;;;;;;;4.87;100.00;102217.31;5045949;28;20710;-77
2022/11/27 05:26:20;;;;;;;4.78;3.22;;;;;;;4.81;100.00;102212.38;5049593;28;20102;-77
2022/11/27 05:28:46;;;;;;;2.95;1.73;;;;;;;4.82;100.00;102222.78;5016810;28;20049;-77
2022/11/27 05:31:12;;;;;;;3.88;2.05;;;;;;;4.75;100.00;102216.19;5047367;28;20529;-77
2022/11/27 05:33:37;;;;;;;2.33;1.85;;;;;;;4.70;100.00;102205.09;5048637;28;20036;-77
2022/11/27 05:36:03;;;;;;;2.00;1.55;;;;;;;4.80;100.00;102205.47;5031334;28;20043;-77
2022/11/27 05:38:28;;;;;;;4.70;1.85;;;;;;;4.80;100.00;102206.31;5049234;28;20032;-77
2022/11/27 05:40:54;;;;;;;1.20;1.05;;;;;;;4.75;100.00;102208.34;5033962;28;20037;-77
2022/11/27 05:43:19;;;;;;;2.38;1.33;;;;;;;4.53;100.00;102151.06;5047612;28;20037;-77
2022/11/27 05:45:45;;;;;;;4.25;2.28;;;;;;;4.76;100.00;102193.47;5049616;28;20443;-77
2022/11/27 05:48:10;;;;;;;1.83;1.40;;;;;;;4.72;100.00;102193.63;5045959;28;20028;-77
2022/11/27 05:50:35;;;;;;;8.77;2.83;;;;;;;4.65;100.00;102180.94;5047506;28;20064;-77
2022/11/27 05:53:01;;;;;;;5.05;2.22;;;;;;;4.47;100.00;102167.91;5028145;28;20458;-77
2022/11/27 05:55:26;;;;;;;8.07;1.58;;;;;;;4.61;100.00;102185.47;5048254;28;20021;-77
2022/11/27 05:57:51;;;;;;;6.63;1.70;;;;;;;4.39;100.00;102154.38;5052223;28;20079;-77
2022/11/27 06:00:17;;;;;;;2.58;1.20;;;;;;;4.59;100.00;102191.72;5048750;28;20028;-78
2022/11/27 06:02:42;;;;;;;6.10;2.70;;;;;;;4.45;100.00;102174.97;5053451;28;20473;-77
2022/11/27 06:05:08;;;;;;;1.85;1.38;;;;;;;4.44;100.00;102170.69;5052709;28;20032;-77
2022/11/27 06:07:33;;;;;;;5.93;2.13;;;;;;;4.57;100.00;102180.50;5049617;28;20037;-77
2022/11/27 06:09:59;;;;;;;1.10;0.82;;;;;;;4.47;100.00;102165.28;5051396;28;20041;-77
2022/11/27 06:12:24;;;;;;;1.13;1.02;;;;;;;4.23;100.00;102130.78;5035690;28;20032;-77
2022/11/27 06:14:49;;;;;;;1.15;1.00;;;;;;;4.56;100.00;102168.34;5055201;28;20148;-77
2022/11/27 06:17:15;;;;;;;15.88;2.05;;;;;;;4.40;100.00;102155.19;5050679;28;20029;-78
2022/11/27 06:19:43;;;;;;;5.93;1.63;;;;;;;4.49;100.00;102166.06;5051225;28;20032;-77
2022/11/27 06:22:09;;;;;;;5.53;2.22;;;;;;;4.38;100.00;102144.84;5051160;28;20401;-77
2022/11/27 06:24:34;;;;;;;2.58;1.85;;;;;;;4.47;100.00;102164.44;5050408;28;20025;-76
2022/11/27 06:27:00;;;;;;;3.53;2.25;;;;;;;4.43;100.00;102150.66;5048919;28;20066;-76
2022/11/27 06:29:25;;;;;;;1.17;1.05;;;;;;;4.54;100.00;102166.66;5048694;28;20044;-76
2022/11/27 06:31:50;;;;;;;4.00;1.13;;;;;;;4.45;100.00;102145.38;5033350;28;20078;-76
2022/11/27 06:34:16;;;;;;;1.92;1.42;;;;;;;4.56;100.00;102166.59;5050702;28;20032;-77
2022/11/27 06:36:41;;;;;;;5.43;1.85;;;;;;;4.56;100.00;102160.50;5051627;28;20052;-77
2022/11/27 06:39:09;;;;;;;2.10;1.35;;;;;;;4.58;100.00;102164.72;5050865;28;20396;-77
2022/11/27 06:41:34;;;;;;;2.08;1.45;;;;;;;4.65;100.00;102162.66;5050521;28;20035;-77
2022/11/27 06:44:00;;;;;;;6.20;1.30;;;;;;;4.64;100.00;102156.59;5047764;28;20029;-77
2022/11/27 06:46:27;;;;;;;1.55;1.33;;;;;;;4.67;100.00;102163.41;5048830;28;20540;-77
2022/11/27 06:48:53;;;;;;;2.72;1.52;;;;;;;4.69;100.00;102166.81;5045993;28;20788;-77
2022/11/27 06:51:24;;;;;;;1.88;1.63;;;;;;;4.61;100.00;102154.09;5050792;28;20453;-77
2022/11/27 06:53:51;;;;;;;7.18;1.33;;;;;;;4.65;100.00;102160.03;5050459;28;20052;-77
2022/11/27 06:56:19;;;;;;;1.27;1.00;;;;;;;4.59;100.00;102161.19;5046142;28;20071;-77
2022/11/27 06:58:49;;;;;;;2.97;1.50;;;;;;;4.61;100.00;102148.03;5043381;28;20056;-77
2022/11/27 07:01:16;;;;;;;5.28;2.88;;;;;;;4.62;100.00;102142.75;5044662;28;20037;-77
2022/11/27 07:03:42;;;;;;;1.92;1.40;;;;;;;4.59;100.00;102140.25;5048933;28;20024;-77
2022/11/27 07:06:09;;;;;;;3.35;1.52;;;;;;;4.50;100.00;102141.59;5048944;28;20059;-77
2022/11/27 07:08:35;;;;;;;3.65;1.52;;;;;;;4.60;100.00;102151.59;5051033;28;20029;-77
2022/11/27 07:11:01;;;;;;;3.00;1.90;;;;;;;4.39;100.00;102133.44;5050201;28;20032;-77
2022/11/27 07:13:29;;;;;;;5.97;2.17;;;;;;;4.52;100.00;102149.34;5048529;28;20032;-77
2022/11/27 07:15:54;;;;;;;2.83;1.98;;;;;;;4.52;100.00;102133.66;5049433;28;20426;-77
2022/11/27 07:18:19;;;;;;;2.88;1.35;;;;;;;4.67;100.00;102158.19;5050024;28;20034;-77
2022/11/27 07:20:51;;;;;;;4.82;1.45;;;;;;;4.54;100.00;102142.28;5051963;28;20039;-77
2022/11/27 07:23:16;;;;;;;2.53;1.67;;;;;;;4.70;100.00;102156.28;5051180;28;20028;-77
2022/11/27 07:25:41;;;;;;;5.13;1.83;;;;;;;4.69;100.00;102161.56;5048497;28;20478;-77
2022/11/27 07:28:07;;;;;;;2.53;1.52;;;;;;;4.53;100.00;102136.22;5055083;28;20140;-77
2022/11/27 07:30:32;;;;;;;3.97;2.63;;;;;;;4.65;100.00;102160.03;5037262;28;20057;-77
2022/11/27 07:32:57;;;;;;;6.90;1.85;;;;;;;4.69;100.00;102143.25;5071880;28;20090;-78
2022/11/27 07:35:23;;;;;;;2.17;1.50;;;;;;;4.63;100.00;102141.81;5054267;28;20032;-77
2022/11/27 07:37:48;;;;;;;1.40;1.13;;;;;;;4.61;100.00;102121.88;5052707;28;20528;-77
2022/11/27 07:40:14;;;;;;;1.95;1.52;;;;;;;4.68;100.00;102128.47;5036946;28;20469;-77
2022/11/27 07:42:39;;;;;;;10.00;1.35;;;;;;;4.65;100.00;102133.88;5071366;28;20130;-77
2022/11/27 07:45:07;;;;;;;1.83;0.98;;;;;;;4.57;100.00;102110.72;5068527;28;20089;-77
2022/11/27 07:47:32;;;;;;;3.25;2.10;;;;;;;4.63;100.00;102110.41;5037817;28;20028;-77
2022/11/27 07:49:59;;;;;;;4.07;1.35;;;;;;;4.57;100.00;102112.50;5050882;28;20028;-76
2022/11/27 07:52:25;;;;;;;3.03;1.25;;;;;;;4.51;100.00;102103.25;5052934;28;20056;-77
2022/11/27 07:54:50;;;;;;;7.88;1.45;;;;;;;4.68;100.00;102112.78;5055452;28;20047;-77
2022/11/27 07:57:16;;;;;;;2.25;1.58;;;;;;;4.71;100.00;102120.50;5068433;28;20028;-76
2022/11/27 07:59:41;;;;;;;1.13;1.00;;;;;;;4.67;100.00;102085.81;5069526;28;20557;-76
2022/11/27 08:02:12;;;;;;;8.40;2.15;;;;;;;4.58;100.00;102069.78;5053485;28;20554;-76
2022/11/27 08:04:37;;;;;;;2.28;1.58;;;;;;;4.65;100.00;102071.13;5054225;28;20036;-76
2022/11/27 08:07:03;;;;;;;4.32;2.33;;;;;;;4.86;100.00;102096.13;5068911;28;20381;-76
2022/11/27 08:09:29;;;;;;;1.48;1.25;;;;;;;4.81;100.00;102094.69;5069700;28;20027;-76
2022/11/27 08:11:54;;;;;;;1.92;1.55;;;;;;;4.68;100.00;102070.94;5073494;28;20042;-76
2022/11/27 08:14:20;;;;;;;8.15;3.17;;;;;;;4.72;100.00;102057.63;5035920;28;20221;-76
2022/11/27 08:16:45;;;;;;;3.05;1.83;;;;;;;4.79;100.00;102067.75;5054004;28;20498;-76
2022/11/27 08:19:10;;;;;;;2.58;1.60;;;;;;;4.90;100.00;102087.19;5051807;28;20024;-76
2022/11/27 08:21:36;;;;;;;3.55;1.42;;;;;;;4.87;100.00;102063.81;5053563;28;20032;-76
2022/11/27 08:24:01;;;;;;;1.30;1.17;;;;;;;4.92;100.00;102089.72;5051449;28;20086;-76
2022/11/27 08:26:27;;;;;;;2.88;2.50;;;;;;;4.94;100.00;102096.56;5053628;28;20055;-76
2022/11/27 08:28:54;;;;;;;1.45;1.30;;;;;;;4.94;100.00;102093.97;5065112;28;20052;-77
2022/11/27 08:31:19;;;;;;;2.83;1.60;;;;;;;4.95;100.00;102098.25;5066673;28;20033;-77
2022/11/27 08:33:45;;;;;;;1.55;1.08;;;;;;;4.95;100.00;102103.47;5068725;28;20035;-77
2022/11/27 08:36:11;;;;;;;5.90;1.08;;;;;;;4.89;100.00;102101.19;5043252;28;20028;-77
2022/11/27 08:38:36;;;;;;;1.73;1.23;;;;;;;4.87;100.00;102100.44;5064494;28;20040;-77
2022/11/27 08:41:03;;;;;;;2.03;0.98;;;;;;;4.77;100.00;102083.56;5047603;28;20040;-77
2022/11/27 08:43:29;;;;;;;1.45;0.85;;;;;;;4.94;100.00;102090.47;5069640;28;20494;-77
2022/11/27 08:45:55;;;;;;;2.00;1.33;;;;;;;4.83;100.00;102090.22;5069408;28;20032;-77
2022/11/27 08:48:22;;;;;;;3.10;1.25;;;;;;;4.79;100.00;102078.22;5069395;28;20037;-76
2022/11/27 08:50:48;;;;;;;4.07;2.30;;;;;;;4.97;100.00;102097.34;5068249;28;20039;-78
2022/11/27 08:53:14;;;;;;;3.70;1.50;;;;;;;4.98;100.00;102093.78;5069671;28;20115;-77
2022/11/27 08:55:39;;;;;;;4.15;1.50;;;;;;;4.80;100.00;102065.06;5035763;28;20464;-77
2022/11/27 08:58:05;;;;;;;3.10;2.50;;;;;;;4.97;100.00;102071.19;5053752;28;20118;-77
2022/11/27 09:00:32;;;;;;;2.20;2.00;;;;;;;4.99;100.00;102090.22;5052967;28;20035;-77
2022/11/27 09:02:58;;;;;;;1.80;1.70;;;;;;;4.32;100.00;101981.34;5071822;28;20483;-77
2022/11/27 09:05:24;;;;;;;2.25;1.42;;;;;;;4.95;100.00;102085.16;5070718;28;20446;-77
2022/11/27 09:07:50;;;;;;;13.38;2.63;;;;;;;4.84;100.00;102060.53;5069145;28;20028;-77
2022/11/27 09:10:15;;;;;;;4.72;1.75;;;;;;;5.10;100.00;102082.66;5047794;28;21754;-77
2022/11/27 09:12:43;;;;;;;1.13;1.02;;;;;;;5.16;100.00;102090.16;5050459;28;20087;-77
2022/11/27 09:15:10;;;;;;;2.45;2.17;;;;;;;5.14;100.00;102092.88;5033720;28;20043;-77
2022/11/27 09:17:35;;;;;;;6.03;1.90;;;;;;;5.14;100.00;102084.19;5051958;28;20044;-77
2022/11/27 09:20:00;;;;;;;2.53;1.60;;;;;;;5.17;100.00;102086.63;5050159;28;20056;-76
2022/11/27 09:22:26;;;;;;;2.08;1.42;;;;;;;5.11;100.00;102085.16;5036286;28;20578;-77
2022/11/27 09:24:51;;;;;;;3.90;2.45;;;;;;;4.95;100.00;102050.31;5047503;28;20032;-77
2022/11/27 09:27:16;;;;;;;1.58;1.17;;;;;;;5.03;100.00;102062.97;5068571;28;20033;-75
2022/11/27 09:29:42;;;;;;;5.05;2.50;;;;;;;5.06;100.00;102076.75;5067968;28;20151;-75
2022/11/27 09:32:07;;;;;;;3.00;1.88;;;;;;;5.09;100.00;102080.94;5036650;28;20036;-75
2022/11/27 09:34:32;;;;;;;3.53;1.23;;;;;;;4.89;100.00;102075.03;5071195;28;20222;-75
2022/11/27 09:36:58;;;;;;;2.65;1.90;;;;;;;5.00;100.00;102089.31;5042415;28;20063;-76
2022/11/27 09:39:25;;;;;;;6.22;1.88;;;;;;;4.89;100.00;102090.72;5055745;28;20033;-75
2022/11/27 09:41:56;;;;;;;2.30;1.85;;;;;;;4.95;100.00;102100.03;5075103;28;20043;-76
2022/11/27 09:44:41;;;;;;;4.65;1.67;;;;;;;4.99;100.00;102096.31;5075210;28;20039;-75
2022/11/27 09:47:37;;;;;;;3.80;2.30;;;;;;;4.94;100.00;102099.19;5073780;28;20067;-75
2022/11/27 09:50:09;;;;;;;2.63;1.88;;;;;;;4.82;100.00;102081.53;5056685;28;20047;-75
2022/11/27 09:52:45;;;;;;;1.88;1.35;;;;;;;4.88;100.00;102101.28;5074901;28;20028;-77
2022/11/27 09:55:15;;;;;;;2.25;1.55;;;;;;;4.90;100.00;102102.91;5073677;28;20480;-76
2022/11/27 09:57:45;;;;;;;2.83;1.83;;;;;;;4.78;100.00;102113.16;5072001;28;20029;-75
2022/11/27 10:00:13;;;;;;;2.55;1.63;;;;;;;4.91;100.00;102114.19;5075480;28;20496;-75
2022/11/27 10:02:40;;;;;;;17.50;3.30;;;;;;;4.77;100.00;102096.63;5055249;28;20062;-75
2022/11/27 10:05:15;;;;;;;8.82;2.40;;;;;;;4.79;100.00;102091.31;5074869;28;20556;-75
2022/11/27 10:08:08;;;;;;;3.15;2.88;;;;;;;4.74;100.00;102088.94;5075742;28;20023;-75
2022/11/27 10:10:43;;;;;;;2.33;1.63;;;;;;;4.84;100.00;102092.75;5073655;28;20072;-75
2022/11/27 10:13:23;;;;;;;3.40;2.03;;;;;;;4.87;100.00;102096.97;5072821;28;20024;-75
2022/11/27 10:16:07;;;;;;;2.03;1.80;;;;;;;4.82;100.00;102091.16;5075469;28;20496;-75
2022/11/27 10:18:42;;;;;;;7.50;2.80;;;;;;;4.89;100.00;102095.13;5058105;28;20024;-75
2022/11/27 10:21:24;;;;;;;3.30;1.65;;;;;;;4.78;100.00;102073.94;5072846;28;20493;-75
2022/11/27 10:24:08;;;;;;;2.35;2.15;;;;;;;4.94;100.00;102091.34;5052034;28;20059;-75
2022/11/27 10:26:43;;;;;;;12.30;5.65;;;;;;;4.75;100.00;102074.94;5055480;28;20032;-75
2022/11/27 10:29:17;;;;;;;2.65;1.88;;;;;;;4.79;100.00;102083.44;5053522;28;20135;-76
2022/11/27 10:31:48;;;;;;;4.13;2.60;;;;;;;4.83;100.00;102080.59;5072523;28;20043;-75
2022/11/27 10:34:35;;;;;;;5.88;2.17;;;;;;;4.88;100.00;102078.59;5071559;28;20037;-75
2022/11/27 10:37:07;;;;;;;2.63;2.33;;;;;;;4.79;100.00;102068.63;5073940;28;20392;-75
2022/11/27 10:39:45;;;;;;;2.85;2.30;;;;;;;4.83;100.00;102070.13;5072313;28;20030;-75
2022/11/27 10:42:17;;;;;;;3.53;1.60;;;;;;;4.73;100.00;102034.94;5054422;28;20067;-75
2022/11/27 10:44:49;;;;;;;2.22;2.03;;;;;;;4.90;100.00;102057.56;5070654;28;20012;-75
2022/11/27 10:47:16;;;;;;;3.28;2.95;;;;;;;4.94;100.00;102046.00;5072645;28;20031;-75
2022/11/27 10:49:42;;;;;;;3.33;2.47;;;;;;;4.83;100.00;102043.97;5054032;28;20035;-75
2022/11/27 10:52:17;;;;;;;3.28;2.25;;;;;;;4.91;100.00;102047.03;5072159;28;20040;-75
2022/11/27 10:54:49;;;;;;;3.13;1.80;;;;;;;4.92;100.00;102038.25;5074650;28;20408;-75
2022/11/27 10:57:28;;;;;;;3.63;2.45;;;;;;;4.91;100.00;102030.50;5074429;28;20472;-75
2022/11/27 11:00:12;;;;;;;4.95;3.90;;;;;;;4.84;100.00;102032.59;5073210;28;20464;-75
2022/11/27 11:02:38;;;;;;;2.65;2.45;;;;;;;4.84;100.00;102037.81;5073252;28;20023;-76
2022/11/27 11:05:18;;;;;;;3.13;2.28;;;;;;;4.89;100.00;102027.94;5040955;28;20568;-75
2022/11/27 11:08:03;;;;;;;5.82;2.83;;;;;;;4.87;100.00;102029.78;5073908;28;20020;-75
2022/11/27 11:10:42;;;;;;;4.20;2.85;;;;;;;4.76;100.00;101997.31;5072772;28;20028;-75
2022/11/27 11:13:10;;;;;;;5.45;2.30;;;;;;;4.87;100.00;102011.50;5071179;28;20021;-74
2022/11/27 11:15:55;;;;;;;5.88;2.53;;;;;;;4.88;100.00;102013.19;5073559;28;20048;-75
2022/11/27 11:18:32;;;;;;;9.48;3.28;;;;;;;4.91;100.00;102007.78;5071467;28;20579;-75
2022/11/27 11:21:01;;;;;;;3.13;2.13;;;;;;;4.98;100.00;102005.66;5070951;28;20136;-75
2022/11/27 11:23:33;;;;;;;5.25;4.05;;;;;;;4.89;100.00;101990.47;5073535;28;20500;-75
2022/11/27 11:26:03;;;;;;;6.47;2.85;;;;;;;4.89;100.00;101995.72;5073728;28;20107;-75
2022/11/27 11:28:29;;;;;;;4.00;3.38;;;;;;;5.00;100.00;101992.50;5072152;28;20048;-75
2022/11/27 11:31:02;;;;;;;9.13;3.38;;;;;;;4.97;100.00;101983.06;5039776;28;20032;-74
2022/11/27 11:33:28;;;;;;;8.52;3.90;;;;;;;4.97;100.00;101988.28;5072252;28;20445;-74